createdAt,value
2022-12-05T00:44:25.336Z,1.55
2022-12-05T00:47:25.562Z,1.61
2022-12-05T00:49:59.038Z,1.36
2022-12-05T00:52:53.751Z,1.33
2022-12-05T00:55:20.748Z,1.50
2022-12-05T00:57:47.977Z,1.54
2022-12-05T01:00:15.960Z,1.52
2022-12-05T01:02:43.269Z,1.58
2022-12-05T01:05:10.378Z,1.69
2022-12-05T01:07:37.644Z,1.78
2022-12-05T01:10:05.636Z,1.71
2022-12-05T01:12:33.669Z,1.60
2022-12-05T01:15:00.687Z,1.36
2022-12-05T01:17:28.057Z,1.29
2022-12-05T01:19:55.107Z,1.36
2022-12-05T01:22:22.449Z,1.48
2022-12-05T01:24:49.464Z,1.67
2022-12-05T01:27:16.688Z,1.65
2022-12-05T01:29:43.644Z,1.64
2022-12-05T01:32:10.936Z,1.73
2022-12-05T01:34:37.949Z,1.71
2022-12-05T01:37:05.093Z,1.81
2022-12-05T01:39:32.136Z,1.92
2022-12-05T01:41:59.595Z,1.76
2022-12-05T01:44:26.454Z,1.54
2022-12-05T01:46:56.054Z,1.49
2022-12-05T01:49:39.208Z,1.71
2022-12-05T01:52:18.891Z,1.79
2022-12-05T01:54:50.376Z,1.62
2022-12-05T01:57:18.087Z,1.67
2022-12-05T01:59:51.668Z,1.64
2022-12-05T02:02:20.211Z,1.57
2022-12-05T02:05:11.444Z,1.71
2022-12-05T02:07:41.239Z,1.84
2022-12-05T02:10:21.080Z,1.79
2022-12-05T02:12:52.084Z,1.83
2022-12-05T02:15:33.862Z,1.64
2022-12-05T02:18:39.260Z,1.46
2022-12-05T02:21:43.832Z,1.58
2022-12-05T02:24:58.020Z,1.50
2022-12-05T02:27:57.437Z,1.55
2022-12-05T02:30:26.776Z,1.65
2022-12-05T02:32:59.744Z,1.52
2022-12-05T02:35:50.926Z,1.60
2022-12-05T02:38:28.741Z,1.58
2022-12-05T02:41:12.453Z,1.60
2022-12-05T02:43:59.843Z,1.73
2022-12-05T02:46:33.161Z,1.65
2022-12-05T02:49:10.256Z,1.38
2022-12-05T02:51:46.770Z,1.33
2022-12-05T02:54:23.853Z,1.16
2022-12-05T02:56:54.927Z,1.36
2022-12-05T02:59:23.772Z,1.22
2022-12-05T03:01:52.469Z,1.31
2022-12-05T03:04:24.251Z,1.31
2022-12-05T03:07:07.111Z,1.49
2022-12-05T03:09:44.385Z,1.33
2022-12-05T03:12:26.095Z,1.27
2022-12-05T03:15:22.974Z,1.23
2022-12-05T03:18:08.184Z,1.21
2022-12-05T03:20:48.500Z,1.46
2022-12-05T03:23:29.447Z,1.16
2022-12-05T03:26:14.317Z,1.28
2022-12-05T03:29:07.840Z,1.29
2022-12-05T03:32:10.815Z,1.45
2022-12-05T03:35:06.497Z,1.50
2022-12-05T03:37:47.327Z,1.67
2022-12-05T03:40:47.492Z,1.76
2022-12-05T03:43:34.508Z,1.63
2022-12-05T03:46:26.192Z,1.64
2022-12-05T03:49:02.760Z,1.76
2022-12-05T03:51:53.218Z,1.68
2022-12-05T03:54:29.812Z,1.72
2022-12-05T03:57:55.759Z,1.81
2022-12-05T04:00:24.637Z,1.59
2022-12-05T04:03:23.014Z,1.38
2022-12-05T04:05:57.658Z,1.28
2022-12-05T04:08:44.385Z,1.49
2022-12-05T04:11:18.520Z,1.57
2022-12-05T04:14:06.684Z,1.56
2022-12-05T04:17:04.642Z,1.70
2022-12-05T04:20:04.904Z,1.79
2022-12-05T04:22:34.353Z,1.55
2022-12-05T04:25:24.095Z,1.69
2022-12-05T04:28:19.599Z,1.71
2022-12-05T04:31:03.708Z,1.77
2022-12-05T04:33:50.270Z,1.70
2022-12-05T04:36:40.604Z,1.63
2022-12-05T04:39:26.127Z,1.53
2022-12-05T04:41:57.676Z,1.46
2022-12-05T04:44:35.115Z,1.51
2022-12-05T04:47:07.362Z,1.49
2022-12-05T04:49:37.888Z,1.63
2022-12-05T04:52:10.475Z,1.70
2022-12-05T04:54:59.400Z,1.58
2022-12-05T04:57:42.356Z,1.57
2022-12-05T05:00:09.908Z,1.66
2022-12-05T05:02:58.111Z,1.61
2022-12-05T05:05:27.595Z,1.65
2022-12-05T05:07:55.652Z,1.66
2022-12-05T05:10:37.691Z,1.56
2022-12-05T05:13:05.109Z,1.65
2022-12-05T05:15:32.003Z,1.41
2022-12-05T05:17:59.260Z,1.35
2022-12-05T05:20:27.258Z,1.44
2022-12-05T05:22:57.135Z,1.33
2022-12-05T05:25:25.826Z,1.58
2022-12-05T05:27:56.159Z,1.66
2022-12-05T05:30:24.788Z,1.60
2022-12-05T05:32:52.449Z,1.31
2022-12-05T05:35:20.252Z,1.46
2022-12-05T05:37:47.820Z,1.45
2022-12-05T05:40:15.184Z,1.62
2022-12-05T05:42:50.769Z,1.59
2022-12-05T05:45:18.374Z,1.57
2022-12-05T05:47:48.516Z,1.62
2022-12-05T05:50:21.110Z,1.42
2022-12-05T05:52:49.503Z,1.64
2022-12-05T05:55:16.494Z,1.67
2022-12-05T05:57:43.683Z,1.65
2022-12-05T06:00:11.387Z,1.76
2022-12-05T06:02:38.892Z,1.77
2022-12-05T06:05:06.777Z,1.68
2022-12-05T06:07:34.349Z,1.49
2022-12-05T06:10:02.552Z,1.48
2022-12-05T06:12:29.932Z,1.65
2022-12-05T06:14:56.967Z,1.68
2022-12-05T06:17:24.252Z,1.65
2022-12-05T06:19:51.707Z,1.36
2022-12-05T06:22:19.291Z,1.68
2022-12-05T06:24:46.385Z,1.75
2022-12-05T06:27:13.801Z,1.76
2022-12-05T06:29:40.929Z,1.61
2022-12-05T06:32:09.154Z,1.55
2022-12-05T06:34:36.737Z,1.55
2022-12-05T06:37:04.461Z,1.52
2022-12-05T06:39:31.484Z,1.63
2022-12-05T06:41:59.035Z,1.48
2022-12-05T06:44:27.077Z,1.57
2022-12-05T06:46:55.704Z,1.71
2022-12-05T06:49:31.713Z,1.46
2022-12-05T06:52:02.365Z,1.42
2022-12-05T06:54:29.244Z,1.64
2022-12-05T06:56:56.484Z,1.52
2022-12-05T06:59:23.521Z,1.56
2022-12-05T07:01:51.310Z,1.68
2022-12-05T07:04:26.947Z,1.51
2022-12-05T07:06:56.333Z,1.73
2022-12-05T07:09:45.802Z,1.72
2022-12-05T07:12:16.852Z,1.69
2022-12-05T07:14:48.973Z,1.60
2022-12-05T07:17:22.047Z,1.52
2022-12-05T07:19:50.313Z,1.70
2022-12-05T07:22:20.333Z,1.71
2022-12-05T07:24:48.571Z,1.72
2022-12-05T07:27:16.446Z,1.84
2022-12-05T07:29:44.685Z,1.82
2022-12-05T07:32:11.949Z,1.74
2022-12-05T07:34:39.026Z,1.63
2022-12-05T07:37:06.395Z,1.58
2022-12-05T07:39:33.436Z,1.53
2022-12-05T07:42:00.720Z,1.59
2022-12-05T07:44:29.130Z,1.59
2022-12-05T07:46:56.562Z,1.64
2022-12-05T07:49:23.537Z,1.80
2022-12-05T07:51:51.116Z,1.87
2022-12-05T07:54:18.252Z,1.78
2022-12-05T07:56:47.983Z,1.75
2022-12-05T07:59:15.249Z,1.84
2022-12-05T08:01:42.588Z,2.00
2022-12-05T08:04:15.065Z,2.01
2022-12-05T08:06:43.420Z,1.85
2022-12-05T08:09:10.372Z,1.89
2022-12-05T08:11:40.972Z,2.04
2022-12-05T08:14:09.451Z,2.03
2022-12-05T08:16:36.793Z,2.03
2022-12-05T08:19:12.881Z,2.16
2022-12-05T08:21:40.476Z,2.19
2022-12-05T08:24:08.224Z,2.15
2022-12-05T08:26:37.947Z,2.20
2022-12-05T08:29:12.053Z,2.15
2022-12-05T08:31:47.574Z,2.15
2022-12-05T08:34:17.513Z,2.24
2022-12-05T08:36:45.554Z,2.23
2022-12-05T08:39:16.500Z,2.25
2022-12-05T08:41:46.399Z,2.30
2022-12-05T08:44:16.970Z,2.30
2022-12-05T08:46:48.603Z,2.28
2022-12-05T08:49:17.103Z,2.24
2022-12-05T08:51:45.105Z,2.29
2022-12-05T08:54:12.675Z,2.27
2022-12-05T08:56:40.368Z,2.29
2022-12-05T08:59:08.004Z,2.41
2022-12-05T09:01:38.451Z,2.42
2022-12-05T09:04:06.826Z,2.35
2022-12-05T09:06:34.897Z,2.34
2022-12-05T09:09:08.313Z,2.40
2022-12-05T09:11:41.403Z,2.47
2022-12-05T09:14:08.825Z,2.53
2022-12-05T09:16:39.250Z,2.67
2022-12-05T09:19:14.557Z,2.56
2022-12-05T09:21:43.561Z,2.67
2022-12-05T09:24:13.203Z,2.80
2022-12-05T09:26:41.740Z,2.76
2022-12-05T09:29:16.234Z,2.67
2022-12-05T09:31:48.705Z,2.80
2022-12-05T09:34:18.190Z,2.80
2022-12-05T09:36:55.697Z,2.84
2022-12-05T09:39:28.660Z,3.00
2022-12-05T09:42:46.126Z,3.01
2022-12-05T09:45:40.039Z,3.21
2022-12-05T09:48:16.230Z,3.21
2022-12-05T09:51:02.921Z,3.29
2022-12-05T09:53:43.641Z,3.38
2022-12-05T09:56:27.845Z,3.14
2022-12-05T09:58:58.355Z,3.26
2022-12-05T10:01:42.354Z,3.39
2022-12-05T10:05:00.432Z,3.18
2022-12-05T10:08:21.108Z,3.50
2022-12-05T10:11:11.696Z,3.50
2022-12-05T10:14:01.263Z,3.38
2022-12-05T10:16:40.949Z,3.56
2022-12-05T10:19:47.856Z,3.56
2022-12-05T10:22:28.769Z,3.57
2022-12-05T10:25:03.214Z,3.55
2022-12-05T10:27:40.222Z,3.61
2022-12-05T10:30:17.613Z,3.59
2022-12-05T10:33:09.542Z,3.55
2022-12-05T10:35:40.927Z,3.60
2022-12-05T10:38:25.543Z,3.54
2022-12-05T10:40:58.200Z,3.63
2022-12-05T10:43:33.105Z,3.68
2022-12-05T10:46:07.150Z,3.83
2022-12-05T10:48:39.924Z,3.71
2022-12-05T10:51:13.705Z,3.78
2022-12-05T10:53:49.640Z,3.89
2022-12-05T10:56:39.592Z,3.97
2022-12-05T10:59:11.509Z,4.15
2022-12-05T11:01:49.163Z,4.09
2022-12-05T11:04:40.225Z,4.17
2022-12-05T11:07:07.384Z,4.29
2022-12-05T11:09:38.899Z,4.27
2022-12-05T11:12:26.064Z,4.20
2022-12-05T11:15:16.474Z,4.27
2022-12-05T11:17:43.720Z,4.39
2022-12-05T11:20:19.758Z,4.50
2022-12-05T11:22:50.690Z,4.53
2022-12-05T11:25:35.243Z,4.55
2022-12-05T11:28:18.095Z,4.72
2022-12-05T11:31:20.845Z,4.51
2022-12-05T11:34:15.138Z,4.50
2022-12-05T11:36:58.432Z,4.48
2022-12-05T11:39:26.091Z,4.50
2022-12-05T11:42:22.961Z,4.59
2022-12-05T11:45:30.259Z,4.68
2022-12-05T11:48:17.384Z,4.80
2022-12-05T11:51:15.830Z,4.60
2022-12-05T11:54:35.552Z,4.51
2022-12-05T11:57:46.123Z,4.69
2022-12-05T12:01:11.451Z,4.80
2022-12-05T12:04:12.042Z,4.89
2022-12-05T12:08:05.402Z,5.04
2022-12-05T12:11:10.490Z,5.10
2022-12-05T12:14:47.394Z,5.20
2022-12-05T12:18:04.518Z,5.33
2022-12-05T12:20:51.356Z,5.43
2022-12-05T12:33:16.861Z,5.69
2022-12-05T12:37:11.982Z,5.72
2022-12-05T12:40:18.334Z,5.86
2022-12-05T12:43:51.660Z,5.93
2022-12-05T12:46:42.719Z,6.00
2022-12-05T12:50:02.986Z,6.06
2022-12-05T12:53:25.252Z,6.16
2022-12-05T12:56:30.739Z,6.15
2022-12-05T12:59:22.432Z,6.08
2022-12-05T13:02:00.933Z,6.12
2022-12-05T13:04:40.438Z,6.13
2022-12-05T13:07:36.470Z,6.18
2022-12-05T13:10:55.835Z,6.21
2022-12-05T13:14:15.304Z,6.16
2022-12-05T13:16:50.325Z,6.12
2022-12-05T13:19:44.327Z,6.18
2022-12-05T13:22:13.838Z,6.13
2022-12-05T13:24:42.493Z,6.17
2022-12-05T13:27:18.788Z,6.23
2022-12-05T13:30:03.305Z,6.19
2022-12-05T13:32:37.522Z,6.21
2022-12-05T13:35:07.552Z,6.20
2022-12-05T13:37:54.822Z,6.24
2022-12-05T13:40:54.160Z,6.28
2022-12-05T13:43:30.122Z,6.28
2022-12-05T13:46:09.528Z,6.30
2022-12-05T13:48:46.745Z,6.37
2022-12-05T13:51:37.023Z,6.47
2022-12-05T13:54:15.390Z,6.55
2022-12-05T13:57:02.959Z,6.59
2022-12-05T14:00:23.248Z,6.66
2022-12-05T14:03:04.380Z,6.73
2022-12-05T14:05:48.167Z,6.79
2022-12-05T14:08:39.516Z,6.79
2022-12-05T14:11:11.983Z,6.79
2022-12-05T14:13:43.492Z,6.77
2022-12-05T14:16:26.447Z,6.75
2022-12-05T14:19:21.366Z,6.90
2022-12-05T14:22:37.317Z,6.89
2022-12-05T14:25:17.287Z,6.84
2022-12-05T14:28:12.914Z,6.80
2022-12-05T14:31:34.379Z,6.71
2022-12-05T14:34:57.494Z,6.63
2022-12-05T14:37:48.450Z,6.56
2022-12-05T14:40:42.144Z,6.53
2022-12-05T14:43:27.029Z,6.49
2022-12-05T14:46:02.076Z,6.43
2022-12-05T14:48:33.506Z,6.39
2022-12-05T14:51:22.675Z,6.36
2022-12-05T14:53:51.072Z,6.31
2022-12-05T14:56:27.109Z,6.26
2022-12-05T14:59:13.113Z,6.23
2022-12-05T15:01:50.956Z,6.19
2022-12-05T15:04:24.369Z,6.16
2022-12-05T15:07:02.570Z,6.13
2022-12-05T15:09:37.681Z,6.10
2022-12-05T15:12:16.852Z,6.09
2022-12-05T15:15:13.651Z,6.09
2022-12-05T15:17:51.535Z,6.07
2022-12-05T15:20:52.332Z,6.03
2022-12-05T15:23:57.964Z,5.98
2022-12-05T15:26:55.036Z,5.97
2022-12-05T15:29:40.299Z,5.94
2022-12-05T15:32:11.581Z,5.92
2022-12-05T15:35:04.835Z,5.90
2022-12-05T15:38:06.203Z,5.90
2022-12-05T15:40:37.660Z,5.89
2022-12-05T15:43:32.651Z,5.90
2022-12-05T15:46:23.938Z,5.87
2022-12-05T16:04:09.409Z,5.85
2022-12-05T16:07:10.536Z,5.81
2022-12-05T16:23:56.662Z,5.70
2022-12-05T16:31:44.783Z,5.64
2022-12-05T16:34:17.048Z,5.63
2022-12-05T16:41:22.706Z,5.52
2022-12-05T16:44:53.214Z,5.48
2022-12-05T16:47:46.993Z,5.46
2022-12-05T16:58:34.067Z,5.36
2022-12-05T17:05:25.567Z,5.31
2022-12-05T17:12:03.245Z,5.27
2022-12-05T17:14:42.915Z,5.25
2022-12-05T17:18:19.330Z,5.25
2022-12-05T17:24:46.530Z,5.22
2022-12-05T17:32:13.285Z,5.20
2022-12-05T17:35:26.952Z,5.19
2022-12-05T17:38:39.000Z,5.20
2022-12-05T17:41:46.837Z,5.20
2022-12-05T17:51:10.331Z,5.16
2022-12-05T17:59:40.262Z,5.17
2022-12-05T18:20:11.537Z,5.17
2022-12-05T18:26:41.848Z,5.17
2022-12-05T18:29:20.334Z,5.18
2022-12-05T18:37:14.392Z,5.15
2022-12-05T18:39:42.124Z,5.15
2022-12-05T18:42:15.077Z,5.15
2022-12-05T18:44:43.196Z,5.16
2022-12-05T18:47:10.164Z,5.15
2022-12-05T18:54:19.980Z,5.12
2022-12-05T18:56:50.527Z,5.13
2022-12-05T18:59:51.939Z,5.14
2022-12-05T19:02:19.937Z,5.13
2022-12-05T19:04:47.848Z,5.12
2022-12-05T19:07:16.108Z,5.10
2022-12-05T19:09:43.844Z,5.11
2022-12-05T19:12:11.496Z,5.10
2022-12-05T19:14:41.172Z,5.10
2022-12-05T19:17:09.143Z,5.09
2022-12-05T19:19:37.007Z,5.10
2022-12-05T19:22:05.103Z,5.11
2022-12-05T19:29:40.447Z,5.08
2022-12-05T19:32:16.796Z,5.07
2022-12-05T19:34:46.455Z,5.06
2022-12-05T19:37:13.536Z,5.05
2022-12-05T19:39:40.875Z,5.03
2022-12-05T19:42:08.223Z,5.00
2022-12-05T19:44:35.559Z,4.99
2022-12-05T19:47:02.463Z,4.98
2022-12-05T19:49:29.947Z,4.97
2022-12-05T21:28:16.679Z,4.94
2022-12-05T21:31:45.354Z,4.93
2022-12-05T21:34:29.006Z,4.92
2022-12-05T21:37:32.546Z,4.89
2022-12-05T21:44:40.758Z,4.89
2022-12-05T21:55:48.964Z,4.85
2022-12-05T21:58:53.615Z,4.87
2022-12-05T22:02:17.512Z,4.89
2022-12-05T22:30:12.660Z,4.85
2022-12-05T22:35:04.457Z,4.81
2022-12-05T22:55:00.227Z,4.80
2022-12-05T22:59:23.645Z,4.80
2022-12-05T23:17:27.892Z,4.78
2022-12-05T23:19:59.324Z,4.79
2022-12-05T23:22:26.929Z,4.78
2022-12-05T23:24:55.168Z,4.79
2022-12-05T23:27:24.968Z,4.79
2022-12-05T23:29:59.084Z,4.80
2022-12-05T23:32:32.326Z,4.79
2022-12-05T23:35:09.248Z,4.78
2022-12-05T23:37:37.443Z,4.75
2022-12-05T23:45:50.291Z,4.76
2022-12-05T23:49:38.414Z,4.78
2022-12-05T23:52:59.062Z,4.77
